Nearby METAR Reports

 

EGMC - Southend-On-Sea, United Kingdom
Distance from station: NE 10km
Updated: 22/08/2019 21:50
Clear
Clear
 Wind from SW
Wind: SW 8 mph , 13 km/h
Temperature: 18°C
Dew Point: 13°C
Humidity: 73%
Barometer: 1025 hPa
Summary: Clear
Visibility: greater than 7 miles , 10 km
2019/08/22 20:50 EGMC 222050Z 22007KT CAVOK 18/13 Q1025
EGLC - London City Airp, United Kingdom
Distance from station: W 37km
Updated: 22/08/2019 21:50
Clear
Clear
 Wind from SW
Wind: SW 7 mph , 11 km/h
Temperature: 20°C
Dew Point: 14°C
Humidity: 69%
Barometer: 1025 hPa
Clouds: Clear
Visibility: 6 miles , 10 km
2019/08/22 20:50 EGLC 222050Z AUTO 22006KT 200V330 9999 NCD 20/14 Q1025
EGKB - Biggin Hill, United Kingdom
Distance from station: WSW 45km
Updated: 22/08/2019 21:50
Clear
Clear
 Wind from SSW
Wind: SSW 9 mph , 15 km/h
Temperature: 16°C
Dew Point: 13°C
Humidity: 83%
Barometer: 1026 hPa
Summary: Clear
Visibility: greater than 7 miles , 10 km
2019/08/22 20:50 EGKB 222050Z 21008KT CAVOK 16/13 Q1026
 
EGSS - Stansted Airport, United Kingdom
Distance from station: NNW 48km
Updated: 22/08/2019 21:50
Clear
Clear
 Wind from W
Wind: W 3 mph , 6 km/h
Temperature: 17°C
Dew Point: 13°C
Humidity: 77%
Barometer: 1025 hPa
Clouds: Clear
Visibility: 6 miles , 10 km
2019/08/22 20:50 EGSS 222050Z AUTO 27003KT 9999 NCD 17/13 Q1025
EGKK - London/Gatwick A, United Kingdom
Distance from station: SW 67km
Updated: 22/08/2019 21:50
Clear
Clear
 Wind from SSW
Wind: SSW 2 mph , 4 km/h
Temperature: 17°C
Dew Point: 13°C
Humidity: 77%
Barometer: 1025 hPa
Summary: Clear
Visibility: greater than 7 miles , 10 km
2019/08/22 20:50 EGKK 222050Z 20002KT CAVOK 17/13 Q1025
EGMD - Lydd Airport, United Kingdom
Distance from station: SSE 67km
Updated: 22/08/2019 21:50
Clear
Clear
 Wind from WSW
Wind: WSW 6 mph , 9 km/h
Temperature: 17°C
Dew Point: 14°C
Humidity: 83%
Barometer: 1026 hPa
Clouds: Clear
Visibility: 6 miles , 10 km
2019/08/22 20:50 EGMD 222050Z AUTO 24005KT 9999 NCD 17/14 Q1026
 
EGWU - Northolt Raf, United Kingdom
Distance from station: W 69km
Updated: 22/08/2019 20:50
Clear
Clear
 Wind from SW
Wind: SW 6 mph , 9 km/h
Temperature: 19°C
Dew Point: 14°C
Humidity: 73%
Barometer: 1024 hPa
Clouds: Clear
Visibility: 6 miles , 10 km
2019/08/22 19:50 EGWU 221950Z AUTO 22005KT 9999 // NCD 19/14 Q1024
EGLL - London/Heathrow, United Kingdom
Distance from station: W 72km
Updated: 22/08/2019 21:50
Clear
Clear
 Wind from SW
Wind: SW 9 mph , 15 km/h
Temperature: 18°C
Dew Point: 14°C
Humidity: 78%
Barometer: 1025 hPa
Clouds: Clear
Visibility: 6 miles , 10 km
2019/08/22 20:50 EGLL 222050Z AUTO 23008KT 9999 NCD 18/14 Q1025 NOSIG
EGUW - Wattisham Raf, United Kingdom
Distance from station: NNE 72km
Updated: 22/08/2019 20:50
Clear
Clear
 Wind from W
Wind: W 6 mph , 9 km/h
Temperature: 16°C
Dew Point: 11°C
Humidity: 72%
Barometer: 1024 hPa
Clouds: Clear
Visibility: 6 miles , 10 km
2019/08/22 19:50 EGUW 221950Z AUTO 26005KT 9999 NCD 16/11 Q1024
 
EGGW - Luton Airport, United Kingdom
Distance from station: WNW 76km
Updated: 22/08/2019 21:50
Clear
Clear
 Wind from W
Wind: W 10 mph , 17 km/h
Temperature: 16°C
Dew Point: 13°C
Humidity: 83%
Barometer: 1025 hPa
Clouds: Clear
Visibility: 6 miles , 10 km
2019/08/22 20:50 EGGW 222050Z AUTO 26009KT 9999 NCD 16/13 Q1025
EGSC - Cambridge, United Kingdom
Distance from station: NNW 81km
Updated: 22/08/2019 17:50
NOT Current
Partly cloudy
Partly cloudy
 Wind from W
Wind: W 15 mph , 24 km/h
Temperature: 22°C
Dew Point: 12°C
Humidity: 53%
Barometer: 1023 hPa
Clouds: Partly cloudy
Visibility: 6 miles , 10 km
Cloud details: Partly cloudy 1341 m
2019/08/22 16:50 EGSC 221650Z 27013KT 9999 SCT044 22/12 Q1023